Columbia Metropolitan Airport
KCAE : rendu visible

Aérodrome :











RETROUVEZ-NOUS SUR...

 
LOGIN :

S'inscrire | Disclaimer

   EN    FR    IT 

 









Légende :    VFR   VFR Marginal   IFR   IFR Intensif   IFR Très Intensif
Visi : 
Plafond : 
>= 8 km
>= 3000ft
5 à 8 km
1000 à 3000 ft
1500m à 5 km
500 à 1000 ft
800 à 1500m
200 à 500 ft
< 800m
< 200 ft
Symboles :   Orages  Brouillard  Fortes neiges  Fortes précipitations  Vent > 20 kt






- Altitude de l'aérodrome : 236 ft
- Code IATA : CAE


KCAE - Columbia Metropolitan

DERNIER METAR :
  • 171756Z 02007G15KT 10SM FEW150 SCT250 10/M10 A3061 RMK AO2 SLP367 T01001100 10106 20067 58010

METARs EXPIRÉS :
  • 171656Z 07009G19KT 10SM FEW150 09/M11 A3064 RMK AO2 SLP377 T00941106
  • 171556Z 07013G22KT 10SM FEW150 09/M11 A3066 RMK AO2 SLP380 T00891111

TAF KCAE
Valide du 17 à 18h jusqu'au 18 à 18h UTC


171725Z 1718/1818 05012KT P6SM SCT120 BKN250
FM180000 05007KT P6SM BKN120
FM181100 05003KT P6SM BKN015



MET'MAP, la Météo Aéronautique d'un coup d'oeil ! - Copyright ORBIFLY Décembre 2007 - Disclaimer

ORBIFLY MET'MAP TEAM :

Programmation & Développement : Alexandra Zaïnal
Sur une idée originale de : Baudouin d'Aumeries
Assistance à la programmation : Marc-Olivier Méhu
Soutien technique & logistique : Manuel Goepfert

Contact : metmap@orbifly.com




SOURCES & CREDITS :

   NOAA       Earth
Advisory